Terminal Aerodrome Forecast
Issued by NWS

Home | Current Version | Previous Version | Graphics & Text | Print | Product List | Glossary On
Versions: 1 2 3 4 5 6 7 8 9 10 11 12 13
968
FTUS43 KICT 212327
TAFSLN
TAF
KSLN 212327Z 2200/2224 36014KT P6SM SKC
     FM220200 36007KT P6SM SKC
     FM221200 20011KT P6SM SCT250=

USA.gov is the U.S. government's official web portal to all federal, state and local government web resources and services.